sensor_id;sensor_type;location;lat;lon;timestamp;pressure;altitude;pressure_sealevel;temperature;humidity
36248;BME280;22287;50.824;5.644;2023-03-22T00:01:22;100279.34;;;11.90;72.34
36248;BME280;22287;50.824;5.644;2023-03-22T00:03:50;100275.66;;;12.08;71.58
36248;BME280;22287;50.824;5.644;2023-03-22T00:06:18;100276.84;;;12.23;70.81
36248;BME280;22287;50.824;5.644;2023-03-22T00:08:47;100268.41;;;12.09;70.87
36248;BME280;22287;50.824;5.644;2023-03-22T00:11:18;100255.94;;;11.89;71.36
36248;BME280;22287;50.824;5.644;2023-03-22T00:13:46;100267.25;;;12.29;69.92
36248;BME280;22287;50.824;5.644;2023-03-22T00:16:13;100261.63;;;12.40;69.60
36248;BME280;22287;50.824;5.644;2023-03-22T00:18:41;100254.25;;;12.15;69.85
36248;BME280;22287;50.824;5.644;2023-03-22T00:21:12;100254.59;;;11.65;71.73
36248;BME280;22287;50.824;5.644;2023-03-22T00:23:40;100253.25;;;11.42;72.54
36248;BME280;22287;50.824;5.644;2023-03-22T00:26:08;100255.63;;;12.01;70.29
36248;BME280;22287;50.824;5.644;2023-03-22T00:28:36;100255.44;;;12.03;70.14
36248;BME280;22287;50.824;5.644;2023-03-22T00:31:04;100249.63;;;11.98;70.09
36248;BME280;22287;50.824;5.644;2023-03-22T00:33:31;100246.84;;;11.90;70.39
36248;BME280;22287;50.824;5.644;2023-03-22T00:36:02;100248.03;;;11.21;72.82
36248;BME280;22287;50.824;5.644;2023-03-22T00:38:29;100248.41;;;11.46;73.01
36248;BME280;22287;50.824;5.644;2023-03-22T00:41:17;100241.03;;;11.38;73.34
36248;BME280;22287;50.824;5.644;2023-03-22T00:43:45;100231.53;;;11.61;73.08
36248;BME280;22287;50.824;5.644;2023-03-22T00:46:14;100230.53;;;11.26;74.09
36248;BME280;22287;50.824;5.644;2023-03-22T00:48:42;100235.09;;;11.25;74.66
36248;BME280;22287;50.824;5.644;2023-03-22T00:51:09;100235.41;;;11.12;75.43
36248;BME280;22287;50.824;5.644;2023-03-22T00:53:38;100223.69;;;11.31;74.84
36248;BME280;22287;50.824;5.644;2023-03-22T00:56:10;100223.97;;;11.28;74.87
36248;BME280;22287;50.824;5.644;2023-03-22T00:58:59;100220.34;;;11.10;75.49
36248;BME280;22287;50.824;5.644;2023-03-22T01:01:25;100209.94;;;11.15;74.89
36248;BME280;22287;50.824;5.644;2023-03-22T01:03:53;100213.84;;;11.30;74.78
36248;BME280;22287;50.824;5.644;2023-03-22T01:06:21;100216.31;;;11.14;74.78
36248;BME280;22287;50.824;5.644;2023-03-22T01:08:48;100210.56;;;11.36;74.17
36248;BME280;22287;50.824;5.644;2023-03-22T01:11:17;100206.69;;;10.92;75.22
36248;BME280;22287;50.824;5.644;2023-03-22T01:13:44;100196.41;;;11.15;74.88
36248;BME280;22287;50.824;5.644;2023-03-22T01:16:11;100203.75;;;11.32;73.75
36248;BME280;22287;50.824;5.644;2023-03-22T01:18:38;100194.72;;;11.04;74.63
36248;BME280;22287;50.824;5.644;2023-03-22T01:21:06;100186.09;;;11.28;73.89
36248;BME280;22287;50.824;5.644;2023-03-22T01:23:34;100194.16;;;11.01;74.91
36248;BME280;22287;50.824;5.644;2023-03-22T01:26:01;100183.22;;;11.39;72.75
36248;BME280;22287;50.824;5.644;2023-03-22T01:28:28;100176.50;;;10.97;74.49
36248;BME280;22287;50.824;5.644;2023-03-22T01:30:55;100173.69;;;10.98;75.26
36248;BME280;22287;50.824;5.644;2023-03-22T01:33:26;100170.56;;;10.93;74.90
36248;BME280;22287;50.824;5.644;2023-03-22T01:35:53;100166.31;;;11.28;74.07
36248;BME280;22287;50.824;5.644;2023-03-22T01:38:20;100163.16;;;10.86;75.39
36248;BME280;22287;50.824;5.644;2023-03-22T01:40:55;100169.94;;;11.09;74.37
36248;BME280;22287;50.824;5.644;2023-03-22T01:43:25;100155.81;;;10.69;75.93
36248;BME280;22287;50.824;5.644;2023-03-22T01:45:55;100157.41;;;11.08;74.79
36248;BME280;22287;50.824;5.644;2023-03-22T01:48:32;100153.94;;;11.25;73.73
36248;BME280;22287;50.824;5.644;2023-03-22T01:53:53;100147.78;;;10.96;74.10
36248;BME280;22287;50.824;5.644;2023-03-22T01:56:24;100137.81;;;11.33;73.07
36248;BME280;22287;50.824;5.644;2023-03-22T01:58:53;100137.38;;;11.01;74.41
36248;BME280;22287;50.824;5.644;2023-03-22T02:01:29;100135.47;;;11.11;73.45
36248;BME280;22287;50.824;5.644;2023-03-22T02:04:20;100130.28;;;11.27;73.30
36248;BME280;22287;50.824;5.644;2023-03-22T02:06:52;100130.28;;;11.54;72.31
36248;BME280;22287;50.824;5.644;2023-03-22T02:09:22;100123.69;;;11.39;71.68
36248;BME280;22287;50.824;5.644;2023-03-22T02:37:48;100101.97;;;10.94;74.52
36248;BME280;22287;50.824;5.644;2023-03-22T02:40:37;100101.16;;;10.75;74.45
36248;BME280;22287;50.824;5.644;2023-03-22T02:43:21;100108.25;;;11.22;73.12
36248;BME280;22287;50.824;5.644;2023-03-22T02:46:29;100112.06;;;10.92;74.33
36248;BME280;22287;50.824;5.644;2023-03-22T02:52:02;100103.09;;;10.92;74.06
36248;BME280;22287;50.824;5.644;2023-03-22T02:54:42;100101.09;;;10.94;74.07
36248;BME280;22287;50.824;5.644;2023-03-22T02:57:15;100091.25;;;10.56;75.36
36248;BME280;22287;50.824;5.644;2023-03-22T02:59:44;100092.22;;;10.74;74.63
36248;BME280;22287;50.824;5.644;2023-03-22T03:02:14;100093.41;;;10.52;75.72
36248;BME280;22287;50.824;5.644;2023-03-22T03:04:46;100092.31;;;10.26;76.73
36248;BME280;22287;50.824;5.644;2023-03-22T03:07:18;100089.25;;;10.58;75.71
36248;BME280;22287;50.824;5.644;2023-03-22T03:09:49;100090.13;;;10.68;74.71
36248;BME280;22287;50.824;5.644;2023-03-22T03:12:24;100085.06;;;10.83;74.20
36248;BME280;22287;50.824;5.644;2023-03-22T03:14:53;100084.78;;;10.30;76.00
36248;BME280;22287;50.824;5.644;2023-03-22T03:17:41;100089.59;;;10.45;75.69
36248;BME280;22287;50.824;5.644;2023-03-22T03:20:18;100084.94;;;10.75;74.46
36248;BME280;22287;50.824;5.644;2023-03-22T03:23:09;100090.41;;;10.55;75.58
36248;BME280;22287;50.824;5.644;2023-03-22T03:25:56;100083.22;;;10.83;74.15
36248;BME280;22287;50.824;5.644;2023-03-22T03:28:34;100082.13;;;10.67;74.55
36248;BME280;22287;50.824;5.644;2023-03-22T03:33:45;100081.19;;;10.95;73.64
36248;BME280;22287;50.824;5.644;2023-03-22T03:36:16;100072.16;;;10.77;74.37
36248;BME280;22287;50.824;5.644;2023-03-22T03:38:46;100076.56;;;10.78;74.83
36248;BME280;22287;50.824;5.644;2023-03-22T03:41:17;100080.47;;;10.56;75.66
36248;BME280;22287;50.824;5.644;2023-03-22T03:43:47;100068.50;;;10.58;74.63
36248;BME280;22287;50.824;5.644;2023-03-22T03:46:14;100061.25;;;10.59;74.86
36248;BME280;22287;50.824;5.644;2023-03-22T03:48:44;100067.97;;;10.92;73.77
36248;BME280;22287;50.824;5.644;2023-03-22T03:51:13;100053.53;;;10.74;73.99
36248;BME280;22287;50.824;5.644;2023-03-22T03:53:41;100057.34;;;10.81;73.93
36248;BME280;22287;50.824;5.644;2023-03-22T03:56:08;100059.06;;;10.82;73.62
36248;BME280;22287;50.824;5.644;2023-03-22T03:58:40;100057.03;;;10.93;73.47
36248;BME280;22287;50.824;5.644;2023-03-22T04:01:07;100063.44;;;11.19;71.76
36248;BME280;22287;50.824;5.644;2023-03-22T04:03:48;100056.47;;;10.90;73.18
36248;BME280;22287;50.824;5.644;2023-03-22T04:06:39;100058.19;;;10.81;73.13
36248;BME280;22287;50.824;5.644;2023-03-22T04:09:14;100061.38;;;11.04;72.77
36248;BME280;22287;50.824;5.644;2023-03-22T04:11:45;100059.22;;;10.71;73.81
36248;BME280;22287;50.824;5.644;2023-03-22T04:14:14;100064.69;;;10.51;75.57
36248;BME280;22287;50.824;5.644;2023-03-22T04:16:41;100059.59;;;10.48;75.19
36248;BME280;22287;50.824;5.644;2023-03-22T04:19:12;100065.13;;;10.47;74.92
36248;BME280;22287;50.824;5.644;2023-03-22T04:21:39;100060.50;;;10.67;74.57
36248;BME280;22287;50.824;5.644;2023-03-22T04:24:08;100059.22;;;10.24;76.35
36248;BME280;22287;50.824;5.644;2023-03-22T04:26:38;100054.09;;;10.02;77.03
36248;BME280;22287;50.824;5.644;2023-03-22T04:29:26;100055.75;;;10.41;76.02
36248;BME280;22287;50.824;5.644;2023-03-22T04:32:17;100054.63;;;10.25;76.59
36248;BME280;22287;50.824;5.644;2023-03-22T04:34:45;100053.66;;;10.72;74.14
36248;BME280;22287;50.824;5.644;2023-03-22T04:37:14;100057.78;;;10.76;74.23
36248;BME280;22287;50.824;5.644;2023-03-22T04:39:54;100045.78;;;10.51;74.66
36248;BME280;22287;50.824;5.644;2023-03-22T04:42:34;100049.91;;;10.92;72.91
36248;BME280;22287;50.824;5.644;2023-03-22T04:45:26;100048.44;;;10.61;74.13
36248;BME280;22287;50.824;5.644;2023-03-22T04:47:59;100046.88;;;10.68;74.46
36248;BME280;22287;50.824;5.644;2023-03-22T04:50:27;100048.06;;;10.83;73.96
36248;BME280;22287;50.824;5.644;2023-03-22T04:52:58;100049.59;;;10.95;72.98
36248;BME280;22287;50.824;5.644;2023-03-22T04:55:26;100046.19;;;10.56;74.55
36248;BME280;22287;50.824;5.644;2023-03-22T04:57:53;100058.78;;;10.19;75.95
36248;BME280;22287;50.824;5.644;2023-03-22T05:00:22;100043.09;;;10.51;75.02
36248;BME280;22287;50.824;5.644;2023-03-22T05:02:50;100056.06;;;10.75;74.67
36248;BME280;22287;50.824;5.644;2023-03-22T05:05:27;100057.28;;;10.63;75.14
36248;BME280;22287;50.824;5.644;2023-03-22T05:07:54;100054.00;;;10.59;75.49
36248;BME280;22287;50.824;5.644;2023-03-22T05:10:23;100056.75;;;10.40;75.75
36248;BME280;22287;50.824;5.644;2023-03-22T05:12:50;100049.34;;;10.42;76.41
36248;BME280;22287;50.824;5.644;2023-03-22T05:15:22;100045.09;;;10.40;76.24
36248;BME280;22287;50.824;5.644;2023-03-22T05:17:51;100046.06;;;10.48;75.64
36248;BME280;22287;50.824;5.644;2023-03-22T05:20:18;100041.88;;;10.27;76.50
36248;BME280;22287;50.824;5.644;2023-03-22T05:22:52;100042.56;;;10.75;74.85
36248;BME280;22287;50.824;5.644;2023-03-22T05:25:25;100042.00;;;10.72;73.61
36248;BME280;22287;50.824;5.644;2023-03-22T05:27:52;100047.72;;;10.69;74.03
36248;BME280;22287;50.824;5.644;2023-03-22T05:30:42;100047.47;;;10.62;74.58
36248;BME280;22287;50.824;5.644;2023-03-22T05:33:20;100039.47;;;10.70;73.78
36248;BME280;22287;50.824;5.644;2023-03-22T05:35:51;100052.28;;;10.68;74.30
36248;BME280;22287;50.824;5.644;2023-03-22T05:38:19;100048.59;;;10.59;74.91
36248;BME280;22287;50.824;5.644;2023-03-22T05:40:50;100049.41;;;10.70;73.94
36248;BME280;22287;50.824;5.644;2023-03-22T05:43:17;100045.78;;;10.51;74.88
36248;BME280;22287;50.824;5.644;2023-03-22T05:45:47;100057.66;;;10.22;75.14
36248;BME280;22287;50.824;5.644;2023-03-22T05:48:39;100060.16;;;10.42;74.74
36248;BME280;22287;50.824;5.644;2023-03-22T05:51:08;100067.28;;;10.43;75.23
36248;BME280;22287;50.824;5.644;2023-03-22T05:53:35;100067.72;;;10.10;76.07
36248;BME280;22287;50.824;5.644;2023-03-22T05:56:08;100060.19;;;10.33;75.75
36248;BME280;22287;50.824;5.644;2023-03-22T05:58:38;100062.00;;;10.42;74.82
36248;BME280;22287;50.824;5.644;2023-03-22T06:01:11;100054.38;;;10.18;76.40
36248;BME280;22287;50.824;5.644;2023-03-22T06:03:38;100055.91;;;10.40;75.21
36248;BME280;22287;50.824;5.644;2023-03-22T06:06:16;100048.94;;;10.37;76.22
36248;BME280;22287;50.824;5.644;2023-03-22T06:09:02;100040.38;;;10.51;74.98
36248;BME280;22287;50.824;5.644;2023-03-22T06:11:43;100048.25;;;9.97;77.69
36248;BME280;22287;50.824;5.644;2023-03-22T06:14:10;100046.00;;;9.83;78.64
36248;BME280;22287;50.824;5.644;2023-03-22T06:16:53;100048.56;;;9.94;78.44
36248;BME280;22287;50.824;5.644;2023-03-22T06:19:21;100041.28;;;10.04;78.18
36248;BME280;22287;50.824;5.644;2023-03-22T06:21:49;100044.84;;;9.95;78.47
36248;BME280;22287;50.824;5.644;2023-03-22T06:24:20;100048.25;;;9.97;78.19
36248;BME280;22287;50.824;5.644;2023-03-22T06:26:47;100058.50;;;9.93;78.43
36248;BME280;22287;50.824;5.644;2023-03-22T06:29:14;100064.16;;;10.29;77.69
36248;BME280;22287;50.824;5.644;2023-03-22T06:31:43;100064.63;;;10.15;77.72
36248;BME280;22287;50.824;5.644;2023-03-22T06:34:10;100070.44;;;10.29;76.87
36248;BME280;22287;50.824;5.644;2023-03-22T06:36:40;100066.72;;;10.30;76.90
36248;BME280;22287;50.824;5.644;2023-03-22T06:39:23;100063.19;;;10.20;77.37
36248;BME280;22287;50.824;5.644;2023-03-22T06:41:51;100073.13;;;10.29;76.50
36248;BME280;22287;50.824;5.644;2023-03-22T06:44:18;100067.81;;;10.47;75.90
36248;BME280;22287;50.824;5.644;2023-03-22T06:46:50;100072.25;;;10.38;76.63
36248;BME280;22287;50.824;5.644;2023-03-22T06:49:36;100066.38;;;10.62;76.04
36248;BME280;22287;50.824;5.644;2023-03-22T06:52:04;100074.94;;;10.57;75.89
36248;BME280;22287;50.824;5.644;2023-03-22T06:54:35;100070.97;;;10.52;76.00
36248;BME280;22287;50.824;5.644;2023-03-22T06:57:02;100071.66;;;10.54;75.78
36248;BME280;22287;50.824;5.644;2023-03-22T06:59:29;100071.94;;;10.41;76.10
36248;BME280;22287;50.824;5.644;2023-03-22T07:01:56;100063.78;;;10.60;75.43
36248;BME280;22287;50.824;5.644;2023-03-22T07:04:24;100065.09;;;10.56;75.59
36248;BME280;22287;50.824;5.644;2023-03-22T07:06:52;100069.41;;;10.86;74.55
36248;BME280;22287;50.824;5.644;2023-03-22T07:09:19;100070.53;;;10.93;74.10
36248;BME280;22287;50.824;5.644;2023-03-22T07:11:48;100071.94;;;10.51;75.67
36248;BME280;22287;50.824;5.644;2023-03-22T07:14:15;100068.50;;;10.68;75.27
36248;BME280;22287;50.824;5.644;2023-03-22T07:16:54;100075.91;;;10.56;74.98
36248;BME280;22287;50.824;5.644;2023-03-22T07:19:23;100071.44;;;11.11;72.57
36248;BME280;22287;50.824;5.644;2023-03-22T07:21:49;100088.84;;;10.63;74.54
36248;BME280;22287;50.824;5.644;2023-03-22T07:24:17;100069.47;;;10.67;74.58
36248;BME280;22287;50.824;5.644;2023-03-22T07:26:44;100075.00;;;10.75;74.67
36248;BME280;22287;50.824;5.644;2023-03-22T07:29:17;100075.84;;;10.76;73.89
36248;BME280;22287;50.824;5.644;2023-03-22T07:31:44;100078.72;;;10.74;74.18
36248;BME280;22287;50.824;5.644;2023-03-22T07:34:20;100080.59;;;11.01;74.42
36248;BME280;22287;50.824;5.644;2023-03-22T07:36:59;100078.16;;;10.71;75.30
36248;BME280;22287;50.824;5.644;2023-03-22T07:39:28;100080.50;;;10.93;75.17
36248;BME280;22287;50.824;5.644;2023-03-22T07:41:56;100072.88;;;11.06;75.34
36248;BME280;22287;50.824;5.644;2023-03-22T07:44:23;100062.56;;;11.19;73.88
36248;BME280;22287;50.824;5.644;2023-03-22T07:47:26;100067.84;;;11.20;73.95
36248;BME280;22287;50.824;5.644;2023-03-22T07:50:35;100077.81;;;11.20;73.52
36248;BME280;22287;50.824;5.644;2023-03-22T07:53:04;100078.47;;;10.95;73.75
36248;BME280;22287;50.824;5.644;2023-03-22T07:55:31;100087.94;;;11.18;73.99
36248;BME280;22287;50.824;5.644;2023-03-22T07:57:58;100088.91;;;11.17;73.75
36248;BME280;22287;50.824;5.644;2023-03-22T08:00:25;100092.28;;;11.29;73.62
36248;BME280;22287;50.824;5.644;2023-03-22T08:03:11;100083.13;;;11.02;74.55
36248;BME280;22287;50.824;5.644;2023-03-22T08:05:59;100095.41;;;11.24;72.96
36248;BME280;22287;50.824;5.644;2023-03-22T08:08:29;100091.81;;;11.33;71.70
36248;BME280;22287;50.824;5.644;2023-03-22T08:10:57;100093.63;;;11.42;71.85
36248;BME280;22287;50.824;5.644;2023-03-22T08:13:24;100099.44;;;11.47;71.78
36248;BME280;22287;50.824;5.644;2023-03-22T08:15:51;100102.44;;;11.17;72.55
36248;BME280;22287;50.824;5.644;2023-03-22T08:18:19;100082.13;;;11.58;71.37
36248;BME280;22287;50.824;5.644;2023-03-22T08:20:51;100082.38;;;11.64;71.60
36248;BME280;22287;50.824;5.644;2023-03-22T08:23:19;100088.69;;;12.00;70.09
36248;BME280;22287;50.824;5.644;2023-03-22T08:26:20;100086.38;;;12.23;69.44
36248;BME280;22287;50.824;5.644;2023-03-22T08:28:50;100075.72;;;12.04;69.63
36248;BME280;22287;50.824;5.644;2023-03-22T08:31:17;100086.06;;;11.73;69.50
36248;BME280;22287;50.824;5.644;2023-03-22T08:33:45;100075.63;;;11.78;69.75
36248;BME280;22287;50.824;5.644;2023-03-22T08:36:18;100080.75;;;11.54;69.65
36248;BME280;22287;50.824;5.644;2023-03-22T08:38:52;100085.81;;;11.39;70.62
36248;BME280;22287;50.824;5.644;2023-03-22T08:41:26;100074.56;;;11.61;69.58
36248;BME280;22287;50.824;5.644;2023-03-22T08:43:53;100076.78;;;11.75;69.43
36248;BME280;22287;50.824;5.644;2023-03-22T08:46:20;100077.81;;;11.65;68.96
36248;BME280;22287;50.824;5.644;2023-03-22T08:48:48;100079.09;;;11.70;68.71
36248;BME280;22287;50.824;5.644;2023-03-22T08:51:21;100077.38;;;12.05;67.93
36248;BME280;22287;50.824;5.644;2023-03-22T08:54:00;100069.56;;;12.02;67.71
36248;BME280;22287;50.824;5.644;2023-03-22T08:57:05;100082.44;;;12.00;68.50
36248;BME280;22287;50.824;5.644;2023-03-22T08:59:46;100073.47;;;11.82;67.73
36248;BME280;22287;50.824;5.644;2023-03-22T09:02:31;100074.75;;;12.13;67.30
36248;BME280;22287;50.824;5.644;2023-03-22T09:04:59;100075.41;;;11.89;66.83
36248;BME280;22287;50.824;5.644;2023-03-22T09:07:26;100072.50;;;11.91;67.23
36248;BME280;22287;50.824;5.644;2023-03-22T09:10:16;100067.16;;;11.99;66.72
36248;BME280;22287;50.824;5.644;2023-03-22T09:12:45;100068.47;;;12.12;65.89
36248;BME280;22287;50.824;5.644;2023-03-22T09:15:12;100061.75;;;12.34;66.54
36248;BME280;22287;50.824;5.644;2023-03-22T09:17:42;100068.84;;;12.35;64.63
36248;BME280;22287;50.824;5.644;2023-03-22T09:20:09;100065.25;;;12.52;64.03
36248;BME280;22287;50.824;5.644;2023-03-22T09:22:40;100068.91;;;12.43;64.27
36248;BME280;22287;50.824;5.644;2023-03-22T09:25:09;100060.78;;;12.43;64.42
36248;BME280;22287;50.824;5.644;2023-03-22T09:27:41;100064.06;;;12.55;64.18
36248;BME280;22287;50.824;5.644;2023-03-22T09:30:08;100070.22;;;12.90;64.27
36248;BME280;22287;50.824;5.644;2023-03-22T09:32:35;100083.28;;;13.21;64.46
36248;BME280;22287;50.824;5.644;2023-03-22T09:35:04;100081.69;;;13.36;62.65
36248;BME280;22287;50.824;5.644;2023-03-22T09:37:40;100073.22;;;12.79;63.61
36248;BME280;22287;50.824;5.644;2023-03-22T09:40:09;100084.31;;;12.68;63.67
36248;BME280;22287;50.824;5.644;2023-03-22T09:42:44;100068.97;;;12.51;64.14
36248;BME280;22287;50.824;5.644;2023-03-22T09:45:37;100073.16;;;12.46;64.62
36248;BME280;22287;50.824;5.644;2023-03-22T09:48:19;100062.31;;;12.71;65.37
36248;BME280;22287;50.824;5.644;2023-03-22T09:50:50;100059.91;;;13.20;64.84
36248;BME280;22287;50.824;5.644;2023-03-22T09:53:20;100054.63;;;13.68;63.13
36248;BME280;22287;50.824;5.644;2023-03-22T09:58:26;100053.22;;;13.56;63.11
36248;BME280;22287;50.824;5.644;2023-03-22T10:06:50;100058.13;;;13.44;62.40
36248;BME280;22287;50.824;5.644;2023-03-22T10:15:14;100033.50;;;13.04;64.22
36248;BME280;22287;50.824;5.644;2023-03-22T10:17:56;100041.81;;;13.03;63.47
36248;BME280;22287;50.824;5.644;2023-03-22T10:20:39;100037.69;;;12.90;63.40
36248;BME280;22287;50.824;5.644;2023-03-22T10:23:15;100034.00;;;12.66;64.54
36248;BME280;22287;50.824;5.644;2023-03-22T10:25:43;100039.84;;;12.87;62.91
36248;BME280;22287;50.824;5.644;2023-03-22T10:28:22;100040.59;;;12.63;64.35
36248;BME280;22287;50.824;5.644;2023-03-22T10:30:55;100040.81;;;12.70;64.74
36248;BME280;22287;50.824;5.644;2023-03-22T10:33:24;100044.19;;;12.98;64.48
36248;BME280;22287;50.824;5.644;2023-03-22T10:35:54;100033.75;;;13.11;62.69
36248;BME280;22287;50.824;5.644;2023-03-22T10:38:26;100037.06;;;13.05;63.77
36248;BME280;22287;50.824;5.644;2023-03-22T10:40:57;100035.94;;;13.07;63.17
36248;BME280;22287;50.824;5.644;2023-03-22T10:45:57;100029.78;;;13.39;64.67
36248;BME280;22287;50.824;5.644;2023-03-22T10:48:33;100035.25;;;13.63;62.93
36248;BME280;22287;50.824;5.644;2023-03-22T10:51:01;100027.84;;;13.23;62.69
36248;BME280;22287;50.824;5.644;2023-03-22T10:56:03;100032.50;;;13.39;62.27
36248;BME280;22287;50.824;5.644;2023-03-22T10:58:31;100034.41;;;13.71;62.76
36248;BME280;22287;50.824;5.644;2023-03-22T11:01:10;100036.81;;;13.74;62.61
36248;BME280;22287;50.824;5.644;2023-03-22T11:03:40;100023.00;;;13.51;62.89
36248;BME280;22287;50.824;5.644;2023-03-22T11:06:14;100025.72;;;13.51;64.27
36248;BME280;22287;50.824;5.644;2023-03-22T11:11:24;100032.28;;;12.98;63.40
36248;BME280;22287;50.824;5.644;2023-03-22T11:14:03;100029.69;;;13.15;62.10
36248;BME280;22287;50.824;5.644;2023-03-22T11:16:54;100019.94;;;13.04;63.53
36248;BME280;22287;50.824;5.644;2023-03-22T11:19:24;100017.81;;;13.16;63.39
36248;BME280;22287;50.824;5.644;2023-03-22T11:21:57;100018.06;;;12.96;63.63
36248;BME280;22287;50.824;5.644;2023-03-22T11:24:26;100011.31;;;13.01;64.42
36248;BME280;22287;50.824;5.644;2023-03-22T11:27:25;100012.66;;;13.05;63.95
36248;BME280;22287;50.824;5.644;2023-03-22T11:32:45;100006.63;;;13.11;63.85
36248;BME280;22287;50.824;5.644;2023-03-22T11:37:45;100000.69;;;13.15;63.38
36248;BME280;22287;50.824;5.644;2023-03-22T11:42:51;100010.84;;;12.79;64.54
36248;BME280;22287;50.824;5.644;2023-03-22T11:45:27;100006.84;;;12.91;64.11
36248;BME280;22287;50.824;5.644;2023-03-22T11:48:05;100009.28;;;13.03;63.40
36248;BME280;22287;50.824;5.644;2023-03-22T11:50:38;100010.56;;;12.90;63.69
36248;BME280;22287;50.824;5.644;2023-03-22T11:53:14;99997.34;;;12.95;63.61
36248;BME280;22287;50.824;5.644;2023-03-22T11:55:43;99998.47;;;13.11;63.18
36248;BME280;22287;50.824;5.644;2023-03-22T11:58:26;99987.31;;;13.22;63.42
36248;BME280;22287;50.824;5.644;2023-03-22T12:00:57;99995.50;;;13.30;63.76
36248;BME280;22287;50.824;5.644;2023-03-22T12:03:29;99996.19;;;13.48;62.91
36248;BME280;22287;50.824;5.644;2023-03-22T12:06:03;99993.44;;;13.32;64.19
36248;BME280;22287;50.824;5.644;2023-03-22T12:08:44;99994.44;;;13.23;63.90
36248;BME280;22287;50.824;5.644;2023-03-22T12:11:28;99994.31;;;13.32;64.09
36248;BME280;22287;50.824;5.644;2023-03-22T12:14:06;99984.28;;;13.25;64.32
36248;BME280;22287;50.824;5.644;2023-03-22T12:16:43;99984.63;;;13.30;64.55
36248;BME280;22287;50.824;5.644;2023-03-22T12:19:21;99974.75;;;13.21;63.94
36248;BME280;22287;50.824;5.644;2023-03-22T12:21:54;99975.50;;;13.31;63.95
36248;BME280;22287;50.824;5.644;2023-03-22T12:24:26;99980.09;;;13.46;63.24
36248;BME280;22287;50.824;5.644;2023-03-22T12:26:59;99977.06;;;13.66;63.41
36248;BME280;22287;50.824;5.644;2023-03-22T12:29:28;99982.25;;;13.35;63.79
36248;BME280;22287;50.824;5.644;2023-03-22T12:32:21;99975.97;;;13.26;64.16
36248;BME280;22287;50.824;5.644;2023-03-22T12:34:52;99970.94;;;13.47;64.89
36248;BME280;22287;50.824;5.644;2023-03-22T12:37:44;99973.81;;;13.70;62.96
36248;BME280;22287;50.824;5.644;2023-03-22T12:43:01;99976.00;;;13.42;63.17
36248;BME280;22287;50.824;5.644;2023-03-22T12:45:38;99962.56;;;13.25;63.13
36248;BME280;22287;50.824;5.644;2023-03-22T12:48:19;99974.31;;;13.33;62.51
36248;BME280;22287;50.824;5.644;2023-03-22T12:50:55;99971.28;;;13.61;63.43
36248;BME280;22287;50.824;5.644;2023-03-22T12:53:27;99967.06;;;13.82;62.59
36248;BME280;22287;50.824;5.644;2023-03-22T12:55:56;99960.63;;;13.83;62.52
36248;BME280;22287;50.824;5.644;2023-03-22T12:58:24;99959.91;;;13.57;62.96
36248;BME280;22287;50.824;5.644;2023-03-22T13:00:58;99967.38;;;13.55;62.38
36248;BME280;22287;50.824;5.644;2023-03-22T13:03:52;99967.69;;;13.44;62.30
36248;BME280;22287;50.824;5.644;2023-03-22T13:09:13;99971.56;;;13.25;62.28
36248;BME280;22287;50.824;5.644;2023-03-22T13:11:48;99961.25;;;13.45;62.65
36248;BME280;22287;50.824;5.644;2023-03-22T13:35:27;99943.91;;;13.22;64.15
36248;BME280;22287;50.824;5.644;2023-03-22T13:38:02;99938.78;;;13.11;64.29
36248;BME280;22287;50.824;5.644;2023-03-22T13:54:00;99924.41;;;13.18;64.85
36248;BME280;22287;50.824;5.644;2023-03-22T13:59:00;99929.28;;;13.15;66.27
36248;BME280;22287;50.824;5.644;2023-03-22T14:01:34;99928.16;;;13.25;65.82
36248;BME280;22287;50.824;5.644;2023-03-22T14:04:14;99938.81;;;13.19;66.73
36248;BME280;22287;50.824;5.644;2023-03-22T14:07:04;99928.28;;;13.08;65.89
36248;BME280;22287;50.824;5.644;2023-03-22T14:09:48;99934.75;;;13.23;65.36
36248;BME280;22287;50.824;5.644;2023-03-22T14:12:30;99930.59;;;12.94;65.89
36248;BME280;22287;50.824;5.644;2023-03-22T14:15:03;99928.91;;;13.02;65.82
36248;BME280;22287;50.824;5.644;2023-03-22T14:17:44;99925.22;;;13.11;65.97
36248;BME280;22287;50.824;5.644;2023-03-22T14:20:16;99925.91;;;13.21;65.86
36248;BME280;22287;50.824;5.644;2023-03-22T14:23:13;99921.16;;;13.23;65.76
36248;BME280;22287;50.824;5.644;2023-03-22T14:25:38;99913.41;;;13.28;67.25
36248;BME280;22287;50.824;5.644;2023-03-22T14:28:05;99924.94;;;13.46;65.99
36248;BME280;22287;50.824;5.644;2023-03-22T14:33:01;99920.50;;;13.37;65.61
36248;BME280;22287;50.824;5.644;2023-03-22T14:35:37;99914.41;;;13.35;65.96
36248;BME280;22287;50.824;5.644;2023-03-22T14:38:07;99915.78;;;13.39;66.04
36248;BME280;22287;50.824;5.644;2023-03-22T14:40:36;99908.66;;;13.46;66.18
36248;BME280;22287;50.824;5.644;2023-03-22T14:43:22;99912.56;;;13.51;65.97
36248;BME280;22287;50.824;5.644;2023-03-22T14:46:22;99909.31;;;13.24;66.67
36248;BME280;22287;50.824;5.644;2023-03-22T14:48:55;99905.59;;;13.33;66.63
36248;BME280;22287;50.824;5.644;2023-03-22T14:51:25;99908.00;;;13.44;66.24
36248;BME280;22287;50.824;5.644;2023-03-22T14:53:53;99905.94;;;13.38;66.09
36248;BME280;22287;50.824;5.644;2023-03-22T14:56:27;99903.91;;;13.56;65.72
36248;BME280;22287;50.824;5.644;2023-03-22T14:58:55;99900.03;;;13.67;66.13
36248;BME280;22287;50.824;5.644;2023-03-22T15:01:27;99912.56;;;13.84;65.13
36248;BME280;22287;50.824;5.644;2023-03-22T15:03:58;99887.78;;;13.46;65.92
36248;BME280;22287;50.824;5.644;2023-03-22T15:06:27;99894.91;;;13.31;66.42
36248;BME280;22287;50.824;5.644;2023-03-22T15:08:54;99879.66;;;13.54;65.76
36248;BME280;22287;50.824;5.644;2023-03-22T15:11:21;99888.31;;;13.66;65.38
36248;BME280;22287;50.824;5.644;2023-03-22T15:13:48;99887.63;;;13.56;65.52